Time;durP1;ratioP1;P1;durP2;ratioP2;P2;SDS_P1;SDS_P2;PMS_P1;PMS_P2;Temp;Humidity;BMP_temperature;BMP_pressure;BME280_temperature;BME280_humidity;BME280_pressure;Samples;Min_cycle;Max_cycle;Signal;HPM_P1;HPM_P2
2021/07/15 00:02:20;;;;;;;7.88;2.42;;;;;;;24.06;47.45;100366.00;5035713;28;20128;-69
2021/07/15 00:04:47;;;;;;;5.22;2.75;;;;;;;23.95;47.30;100347.03;5032046;28;20053;-69
2021/07/15 00:07:16;;;;;;;5.68;2.42;;;;;;;24.03;47.03;100348.81;5035197;28;20053;-67
2021/07/15 00:09:44;;;;;;;4.60;1.95;;;;;;;23.90;47.01;100336.78;5033666;28;20049;-69
2021/07/15 00:12:14;;;;;;;3.80;2.20;;;;;;;24.03;47.16;100351.69;5034748;28;20565;-75
2021/07/15 00:14:42;;;;;;;7.75;2.67;;;;;;;23.84;47.48;100335.41;5037842;28;20042;-74
2021/07/15 00:17:09;;;;;;;8.23;2.50;;;;;;;23.91;47.30;100334.75;5043026;28;20051;-76
2021/07/15 00:19:36;;;;;;;9.13;2.15;;;;;;;23.98;47.29;100352.81;5031310;28;20068;-75
2021/07/15 00:22:04;;;;;;;5.53;2.10;;;;;;;23.93;47.28;100347.44;5044597;28;20447;-69
2021/07/15 00:24:31;;;;;;;5.55;2.58;;;;;;;23.91;47.11;100346.16;5041623;28;20492;-69
2021/07/15 00:26:58;;;;;;;7.22;2.72;;;;;;;23.91;47.35;100343.28;5032124;28;20088;-70
2021/07/15 00:29:25;;;;;;;5.80;2.08;;;;;;;23.95;46.78;100347.03;5039092;28;20048;-68
2021/07/15 00:31:53;;;;;;;6.78;2.88;;;;;;;23.86;47.23;100336.69;5043144;28;20058;-68
2021/07/15 00:34:20;;;;;;;3.28;1.70;;;;;;;23.87;47.37;100344.03;5041141;28;20068;-67
2021/07/15 00:36:47;;;;;;;5.13;2.70;;;;;;;23.83;47.20;100328.06;5045845;28;20056;-64
2021/07/15 00:39:14;;;;;;;6.78;2.08;;;;;;;23.89;47.32;100341.63;5051960;28;20076;-67
2021/07/15 00:41:41;;;;;;;3.83;2.30;;;;;;;23.81;46.96;100328.44;5045220;28;20140;-68
2021/07/15 00:44:08;;;;;;;5.45;2.20;;;;;;;23.84;47.47;100338.28;5039082;28;20068;-67
2021/07/15 00:46:35;;;;;;;6.88;2.47;;;;;;;23.77;46.94;100327.53;5036882;28;20128;-68
2021/07/15 00:49:03;;;;;;;4.65;2.40;;;;;;;23.77;47.39;100312.47;5036083;28;20124;-67
2021/07/15 00:51:31;;;;;;;7.43;2.33;;;;;;;23.55;47.65;100283.47;5033338;28;20137;-64
2021/07/15 00:53:59;;;;;;;7.65;2.15;;;;;;;23.66;47.80;100312.22;5041702;28;20140;-63
2021/07/15 00:56:28;;;;;;;3.65;2.08;;;;;;;23.61;47.48;100309.66;5055681;28;20121;-62
2021/07/15 00:58:55;;;;;;;5.80;2.13;;;;;;;23.49;47.60;100301.25;5051848;28;20045;-62
2021/07/15 01:01:22;;;;;;;8.00;2.05;;;;;;;23.53;47.81;100310.72;5049992;28;20139;-62
2021/07/15 01:03:50;;;;;;;3.33;2.10;;;;;;;23.56;48.22;100309.97;5033934;28;20342;-65
2021/07/15 01:06:17;;;;;;;6.15;2.45;;;;;;;23.53;48.09;100299.31;5038960;28;20132;-65
2021/07/15 01:08:44;;;;;;;4.18;2.33;;;;;;;23.49;48.16;100309.81;5045544;28;20136;-64
2021/07/15 01:11:30;;;;;;;7.40;2.53;;;;;;;23.41;48.43;100298.22;5036379;28;20116;-65
2021/07/15 01:14:14;;;;;;;5.35;2.20;;;;;;;23.33;48.57;100304.97;5042895;28;20570;-63
2021/07/15 01:17:10;;;;;;;5.70;2.00;;;;;;;23.22;48.53;100309.63;5046372;28;20592;-63
2021/07/15 01:19:57;;;;;;;4.88;2.45;;;;;;;23.12;48.77;100299.63;5038744;28;20049;-65
2021/07/15 01:22:57;;;;;;;4.40;2.20;;;;;;;23.15;48.57;100298.91;5040695;28;20129;-66
2021/07/15 01:25:58;;;;;;;3.70;1.98;;;;;;;23.20;48.64;100297.75;5039981;28;20132;-65
2021/07/15 01:29:05;;;;;;;7.88;2.20;;;;;;;23.20;48.69;100289.22;5034365;28;20088;-67
2021/07/15 01:31:37;;;;;;;3.05;1.88;;;;;;;23.28;48.66;100279.66;5053803;28;20143;-66
2021/07/15 01:34:08;;;;;;;3.20;1.90;;;;;;;23.49;48.28;100287.00;5032836;28;20081;-67
2021/07/15 01:36:36;;;;;;;4.50;2.40;;;;;;;23.54;48.44;100292.41;5033406;28;20514;-69
2021/07/15 01:39:09;;;;;;;4.13;2.42;;;;;;;23.46;48.36;100274.34;5038389;28;20477;-68
2021/07/15 01:41:46;;;;;;;4.38;2.08;;;;;;;23.49;48.35;100281.31;5040505;28;20061;-69
2021/07/15 01:44:29;;;;;;;4.57;2.13;;;;;;;23.42;48.58;100273.44;5036817;28;20455;-71
2021/07/15 01:46:56;;;;;;;3.00;2.10;;;;;;;23.46;48.66;100290.59;5055648;28;20083;-70
2021/07/15 01:49:25;;;;;;;5.60;2.47;;;;;;;23.37;49.08;100282.25;5063519;28;20088;-70
2021/07/15 01:51:56;;;;;;;4.05;1.85;;;;;;;23.32;49.14;100294.78;5038742;28;20116;-63
2021/07/15 01:54:25;;;;;;;4.55;2.20;;;;;;;23.26;49.18;100292.63;5043746;28;20099;-64
2021/07/15 01:56:53;;;;;;;6.15;2.67;;;;;;;23.16;49.65;100289.13;5035968;28;20068;-64
2021/07/15 01:59:26;;;;;;;3.83;1.92;;;;;;;23.07;49.65;100284.84;5033656;28;20073;-65
2021/07/15 02:01:56;;;;;;;4.95;2.30;;;;;;;22.90;50.00;100278.31;5038073;28;20051;-65
2021/07/15 02:04:26;;;;;;;4.90;2.15;;;;;;;22.90;50.06;100298.25;5042869;28;20056;-63
2021/07/15 02:06:54;;;;;;;5.20;3.03;;;;;;;22.84;50.42;100301.78;5037097;28;20072;-65
2021/07/15 02:09:23;;;;;;;2.78;2.05;;;;;;;22.82;50.39;100295.63;5035356;28;20077;-63
2021/07/15 02:11:51;;;;;;;3.42;2.00;;;;;;;22.80;50.56;100293.13;5038482;28;20045;-64
2021/07/15 02:14:22;;;;;;;2.10;1.52;;;;;;;22.81;50.51;100294.00;5044006;28;20554;-64
2021/07/15 02:16:52;;;;;;;5.20;2.33;;;;;;;22.92;50.41;100287.38;5035842;28;20536;-63
2021/07/15 02:19:22;;;;;;;4.13;2.30;;;;;;;23.00;50.08;100285.50;5033928;28;20539;-66
2021/07/15 02:21:49;;;;;;;5.18;2.08;;;;;;;23.07;50.03;100301.94;5033280;28;20052;-66
2021/07/15 02:24:20;;;;;;;3.40;2.25;;;;;;;23.11;49.78;100292.28;5045039;28;20041;-65
2021/07/15 02:26:50;;;;;;;5.63;1.95;;;;;;;23.06;49.55;100289.72;5032194;28;20133;-65
2021/07/15 02:29:19;;;;;;;6.63;1.80;;;;;;;23.00;49.47;100261.91;5037075;28;20127;-64
2021/07/15 02:31:54;;;;;;;4.85;1.90;;;;;;;23.13;49.39;100278.50;5032735;28;20096;-63
2021/07/15 02:34:26;;;;;;;2.17;1.40;;;;;;;23.19;49.28;100290.44;5036240;28;20045;-62
2021/07/15 02:36:55;;;;;;;3.70;1.85;;;;;;;23.28;49.34;100290.19;5034145;28;20561;-63
2021/07/15 02:39:22;;;;;;;3.50;1.58;;;;;;;23.27;49.22;100295.06;5032601;28;20191;-63
2021/07/15 02:41:48;;;;;;;4.13;1.90;;;;;;;23.39;48.78;100291.28;5047515;28;20076;-63
2021/07/15 02:44:16;;;;;;;4.72;2.10;;;;;;;23.41;48.76;100295.38;5041523;28;20077;-63
2021/07/15 02:46:43;;;;;;;2.53;1.88;;;;;;;23.38;48.55;100287.59;5033749;28;20513;-64
2021/07/15 02:49:11;;;;;;;2.88;1.55;;;;;;;23.28;48.65;100268.25;5039721;28;20068;-64
2021/07/15 02:51:37;;;;;;;2.72;2.10;;;;;;;23.50;48.61;100303.72;5042833;28;20132;-65
2021/07/15 02:54:04;;;;;;;2.05;1.30;;;;;;;23.53;48.43;100310.72;5038467;28;20095;-63
2021/07/15 02:56:34;;;;;;;2.90;1.80;;;;;;;23.53;48.47;100296.47;5032108;28;20584;-63
2021/07/15 02:59:08;;;;;;;3.08;1.88;;;;;;;23.55;47.89;100286.31;5048215;28;20567;-65
2021/07/15 03:02:04;;;;;;;4.10;1.50;;;;;;;23.60;48.02;100296.59;5043504;28;20049;-61
2021/07/15 03:04:41;;;;;;;3.40;2.00;;;;;;;23.54;47.81;100275.28;5041092;28;20040;-64
2021/07/15 03:07:09;;;;;;;2.92;1.65;;;;;;;23.67;47.46;100288.19;5032811;28;20092;-64
2021/07/15 03:09:39;;;;;;;2.95;2.10;;;;;;;23.62;47.78;100277.94;5032961;28;20088;-65
2021/07/15 03:12:14;;;;;;;5.55;2.08;;;;;;;23.66;47.64;100289.41;5039082;28;20561;-65
2021/07/15 03:14:44;;;;;;;5.45;2.13;;;;;;;23.71;47.70;100303.38;5046275;28;20041;-65
2021/07/15 03:17:14;;;;;;;4.03;2.22;;;;;;;23.58;48.01;100293.28;5038629;28;20179;-65
2021/07/15 03:19:48;;;;;;;4.07;1.80;;;;;;;23.51;47.97;100299.66;5035740;28;20056;-63
2021/07/15 03:22:16;;;;;;;7.03;2.13;;;;;;;23.47;48.04;100297.94;5034673;28;20081;-63
2021/07/15 03:24:50;;;;;;;1.90;1.40;;;;;;;23.29;47.63;100269.91;5037045;28;20090;-64
2021/07/15 03:27:19;;;;;;;3.40;1.20;;;;;;;23.35;47.30;100299.75;5042091;28;20056;-68
2021/07/15 03:29:48;;;;;;;5.35;1.55;;;;;;;23.44;47.27;100293.00;5043973;28;20128;-67
2021/07/15 03:32:16;;;;;;;1.67;0.70;;;;;;;23.41;47.12;100283.97;5032483;28;20136;-66
2021/07/15 03:34:44;;;;;;;6.10;1.65;;;;;;;23.50;46.81;100288.66;5038766;28;20124;-64
2021/07/15 03:37:12;;;;;;;2.47;1.23;;;;;;;23.53;46.56;100276.50;5038395;28;20580;-67
2021/07/15 03:39:39;;;;;;;1.42;1.08;;;;;;;23.52;46.15;100277.69;5042553;28;20132;-69
2021/07/15 03:42:06;;;;;;;3.45;1.50;;;;;;;23.53;45.92;100285.06;5030929;28;20059;-64
2021/07/15 03:44:36;;;;;;;1.58;1.08;;;;;;;23.61;45.67;100290.50;5034041;28;20566;-66
2021/07/15 03:47:03;;;;;;;1.73;1.23;;;;;;;23.44;45.08;100264.50;5043500;28;20076;-67
2021/07/15 03:49:32;;;;;;;1.25;0.70;;;;;;;23.48;44.88;100280.47;5043338;28;20044;-66
2021/07/15 03:51:59;;;;;;;1.73;1.00;;;;;;;23.55;44.39;100268.38;5035013;28;20504;-66
2021/07/15 03:54:26;;;;;;;0.85;0.77;;;;;;;23.57;44.42;100263.97;5041890;28;20128;-66
2021/07/15 03:56:55;;;;;;;1.17;0.50;;;;;;;23.24;43.69;100232.31;5041950;28;20128;-66
2021/07/15 03:59:22;;;;;;;13.00;1.30;;;;;;;23.55;43.26;100266.34;5040446;28;20049;-64
2021/07/15 04:01:57;;;;;;;1.27;0.88;;;;;;;23.37;42.53;100245.22;5036292;28;20053;-64
2021/07/15 04:04:28;;;;;;;1.77;1.13;;;;;;;23.63;42.13;100264.50;5033132;28;20046;-65
2021/07/15 04:07:02;;;;;;;0.90;0.88;;;;;;;23.58;42.08;100262.75;5034784;28;20053;-63
2021/07/15 04:09:33;;;;;;;5.88;1.63;;;;;;;23.66;41.73;100266.59;5046096;28;20116;-63
2021/07/15 04:12:01;;;;;;;6.13;1.85;;;;;;;23.62;41.07;100263.69;5038061;28;20128;-62
2021/07/15 04:15:05;;;;;;;3.17;1.52;;;;;;;23.61;41.18;100270.56;5043038;28;20041;-62
2021/07/15 04:17:56;;;;;;;7.95;1.02;;;;;;;23.56;40.54;100261.50;5036402;28;20057;-62
2021/07/15 04:20:25;;;;;;;0.88;0.77;;;;;;;23.59;40.85;100255.03;5036457;28;20132;-63
2021/07/15 04:22:54;;;;;;;2.35;1.45;;;;;;;23.67;40.36;100259.69;5038274;28;20080;-63
2021/07/15 04:25:23;;;;;;;3.03;1.63;;;;;;;23.54;40.17;100252.50;5044534;28;20133;-64
2021/07/15 04:27:56;;;;;;;1.48;1.33;;;;;;;23.51;39.97;100264.66;5050542;28;20128;-63
2021/07/15 04:30:23;;;;;;;2.83;1.33;;;;;;;23.43;40.02;100269.38;5036486;28;20211;-65
2021/07/15 04:33:02;;;;;;;1.05;0.82;;;;;;;23.40;39.62;100265.25;5045120;28;20046;-64
2021/07/15 04:35:32;;;;;;;1.98;1.42;;;;;;;23.51;39.55;100264.66;5045412;28;20132;-64
2021/07/15 04:38:00;;;;;;;2.58;1.33;;;;;;;23.46;39.48;100262.94;5035811;28;20076;-64
2021/07/15 04:40:29;;;;;;;2.05;1.10;;;;;;;23.30;39.65;100242.22;5042670;28;20688;-63
2021/07/15 04:43:02;;;;;;;1.67;0.77;;;;;;;23.40;39.26;100259.53;5044909;28;20135;-64
2021/07/15 04:45:33;;;;;;;1.15;0.50;;;;;;;23.50;39.54;100269.53;5035185;28;20505;-63
2021/07/15 04:48:00;;;;;;;2.33;1.27;;;;;;;23.31;39.17;100258.13;5053513;28;20136;-64
2021/07/15 04:50:30;;;;;;;0.55;0.50;;;;;;;23.38;39.27;100266.81;5057584;28;20132;-64
2021/07/15 04:53:01;;;;;;;0.82;0.73;;;;;;;23.35;38.85;100261.84;5035803;28;20049;-65
2021/07/15 04:55:29;;;;;;;1.20;1.00;;;;;;;23.37;38.74;100260.28;5045978;28;20128;-64
2021/07/15 04:57:59;;;;;;;1.20;0.65;;;;;;;23.36;39.08;100260.69;5037380;28;20137;-64
2021/07/15 05:00:28;;;;;;;;;;;;;;;23.09;38.83;100271.88;5037812;28;20539;-63
2021/07/15 05:03:12;;;;;;;;;;;;;;;23.24;38.95;100261.63;5045447;28;19921;-64
2021/07/15 05:05:39;;;;;;;6.68;1.15;;;;;;;23.02;38.65;100222.50;5034936;28;19983;-66
2021/07/15 05:08:06;;;;;;;1.10;0.73;;;;;;;23.25;38.89;100262.44;5041404;28;20124;-66
2021/07/15 05:10:33;;;;;;;2.13;0.57;;;;;;;23.39;38.81;100279.88;5049299;28;20520;-68
2021/07/15 05:13:00;;;;;;;1.75;1.10;;;;;;;23.10;38.47;100232.84;5038562;28;20133;-64
2021/07/15 05:15:27;;;;;;;2.97;1.05;;;;;;;23.32;38.45;100291.13;5046523;28;20081;-63
2021/07/15 05:17:54;;;;;;;2.05;0.98;;;;;;;23.32;38.57;100293.97;5033942;28;20045;-62
2021/07/15 05:20:21;;;;;;;3.78;0.65;;;;;;;23.18;38.56;100268.84;5046538;28;20397;-60
2021/07/15 05:22:48;;;;;;;0.95;0.70;;;;;;;23.18;38.52;100291.63;5036265;28;20056;-69
2021/07/15 05:25:15;;;;;;;2.47;0.82;;;;;;;23.07;38.40;100262.06;5040475;28;20045;-74
2021/07/15 05:27:42;;;;;;;3.03;0.65;;;;;;;23.29;38.20;100304.09;5043252;28;20077;-71
2021/07/15 05:30:10;;;;;;;0.38;0.38;;;;;;;23.37;38.07;100287.97;5045863;28;20109;-65
2021/07/15 05:32:36;;;;;;;3.08;1.00;;;;;;;23.29;38.05;100304.09;5034210;28;20073;-66
2021/07/15 05:35:04;;;;;;;3.72;0.95;;;;;;;22.91;38.56;100242.97;5038131;28;20084;-62
2021/07/15 05:37:31;;;;;;;12.82;1.42;;;;;;;23.22;38.39;100308.81;5041544;28;20041;-61
2021/07/15 05:39:58;;;;;;;1.58;1.33;;;;;;;23.40;37.96;100312.88;5036072;28;20082;-63
2021/07/15 05:42:24;;;;;;;1.08;0.90;;;;;;;23.21;37.82;100302.25;5041564;28;20097;-68
2021/07/15 05:44:52;;;;;;;0.47;0.47;;;;;;;23.33;38.07;100324.09;5054179;28;20132;-65
2021/07/15 05:47:19;;;;;;;1.55;0.85;;;;;;;23.30;37.86;100311.44;5049713;28;20045;-61
2021/07/15 05:49:46;;;;;;;1.75;0.95;;;;;;;23.44;37.74;100313.75;5047184;28;20048;-63
2021/07/15 05:52:13;;;;;;;1.88;1.10;;;;;;;23.53;37.66;100307.84;5034890;28;21970;-64
2021/07/15 05:54:40;;;;;;;1.70;1.02;;;;;;;23.68;37.37;100326.94;5034454;28;20072;-65
2021/07/15 05:57:08;;;;;;;0.65;0.55;;;;;;;23.77;37.32;100332.41;5037271;28;20124;-65
2021/07/15 05:59:35;;;;;;;1.17;0.90;;;;;;;23.85;37.11;100329.31;5033319;28;20048;-64
2021/07/15 06:02:02;;;;;;;1.15;0.85;;;;;;;23.86;36.98;100331.00;5040869;28;20555;-64
2021/07/15 06:04:29;;;;;;;1.33;0.68;;;;;;;23.88;36.74;100331.44;5037271;28;20041;-64
2021/07/15 06:06:56;;;;;;;0.60;0.60;;;;;;;23.85;36.67;100331.34;5041229;28;20051;-64
2021/07/15 06:09:25;;;;;;;1.35;1.13;;;;;;;23.93;36.39;100326.63;5036463;28;20065;-63
2021/07/15 06:11:52;;;;;;;1.40;1.30;;;;;;;23.84;36.31;100324.84;5050741;28;20091;-63
2021/07/15 06:14:19;;;;;;;3.28;1.27;;;;;;;24.11;36.06;100342.06;5039973;28;20048;-64
2021/07/15 06:16:46;;;;;;;1.98;1.15;;;;;;;24.11;36.06;100322.09;5049610;28;20124;-64
2021/07/15 06:19:13;;;;;;;2.65;1.33;;;;;;;24.22;35.86;100336.56;5066654;28;20132;-64
2021/07/15 06:21:40;;;;;;;4.00;1.50;;;;;;;24.31;35.48;100340.00;5039802;28;20142;-64
2021/07/15 06:24:07;;;;;;;0.85;0.85;;;;;;;24.43;35.81;100337.00;5033290;28;20057;-65
2021/07/15 06:26:33;;;;;;;0.93;0.80;;;;;;;24.45;35.15;100328.88;5039928;28;20516;-65
2021/07/15 06:29:00;;;;;;;1.60;1.38;;;;;;;24.51;34.87;100343.66;5038053;28;20131;-64
2021/07/15 06:31:27;;;;;;;9.70;2.10;;;;;;;24.72;35.18;100334.66;5039174;28;20059;-64
2021/07/15 06:33:54;;;;;;;1.50;1.27;;;;;;;24.71;34.92;100335.84;5035851;28;20138;-64
2021/07/15 06:36:21;;;;;;;0.85;0.82;;;;;;;24.72;34.24;100351.78;5037339;28;20044;-63
2021/07/15 06:38:48;;;;;;;5.97;2.00;;;;;;;24.91;34.64;100342.28;5039581;28;20072;-63
2021/07/15 06:41:16;;;;;;;2.38;1.73;;;;;;;24.96;34.30;100328.53;5035539;28;20132;-63
2021/07/15 06:43:43;;;;;;;4.30;2.00;;;;;;;25.17;33.87;100339.47;5032538;28;20076;-63
2021/07/15 06:46:11;;;;;;;1.55;1.42;;;;;;;25.17;33.52;100342.34;5033437;28;20377;-64
2021/07/15 06:48:39;;;;;;;3.00;1.42;;;;;;;25.22;33.13;100335.47;5039034;28;20094;-64
2021/07/15 06:51:06;;;;;;;6.40;1.83;;;;;;;25.39;33.30;100334.06;5037845;28;20045;-63
2021/07/15 06:53:33;;;;;;;1.35;1.25;;;;;;;25.39;33.21;100325.50;5032924;28;20046;-63
2021/07/15 06:56:01;;;;;;;3.75;1.08;;;;;;;25.43;32.61;100330.03;5036928;28;20037;-63
2021/07/15 06:58:28;;;;;;;1.88;1.10;;;;;;;25.39;32.74;100340.59;5033807;28;20137;-64
2021/07/15 07:00:56;;;;;;;5.68;1.98;;;;;;;25.38;32.55;100343.88;5042838;28;20051;-64
2021/07/15 07:03:26;;;;;;;2.63;1.25;;;;;;;25.36;32.06;100352.81;5031633;28;20053;-63
2021/07/15 07:05:54;;;;;;;1.10;1.00;;;;;;;25.43;31.93;100344.34;5032710;28;20466;-64
2021/07/15 07:08:21;;;;;;;6.20;2.28;;;;;;;25.55;31.79;100343.28;5034856;28;20064;-64
2021/07/15 07:10:47;;;;;;;2.00;1.25;;;;;;;25.41;31.69;100361.06;5040657;28;20149;-62
2021/07/15 07:13:14;;;;;;;2.20;1.42;;;;;;;25.32;32.35;100339.69;5031356;28;20500;-64
2021/07/15 07:15:41;;;;;;;3.17;2.25;;;;;;;25.45;32.05;100344.78;5031975;28;20549;-63
2021/07/15 07:18:08;;;;;;;1.13;1.02;;;;;;;25.77;31.64;100370.94;5032121;28;20045;-64
2021/07/15 07:20:36;;;;;;;1.13;0.80;;;;;;;25.83;31.55;100359.22;5032229;28;20129;-63
2021/07/15 07:23:05;;;;;;;2.00;0.98;;;;;;;25.70;31.79;100350.84;5032119;28;20084;-63
2021/07/15 07:25:31;;;;;;;6.55;3.50;;;;;;;25.72;31.57;100357.00;5032528;28;20049;-64
2021/07/15 07:27:58;;;;;;;1.85;1.20;;;;;;;25.88;31.46;100364.56;5032284;28;20133;-64
2021/07/15 07:30:25;;;;;;;2.58;1.55;;;;;;;26.03;31.16;100362.72;5032531;28;20125;-64
2021/07/15 07:32:52;;;;;;;1.20;1.10;;;;;;;26.06;30.94;100342.75;5035795;28;20076;-64
2021/07/15 07:35:19;;;;;;;2.13;1.67;;;;;;;26.34;30.71;100368.00;5051554;28;20149;-63
2021/07/15 07:37:46;;;;;;;2.42;1.10;;;;;;;26.26;30.90;100353.97;5052105;28;20476;-64
2021/07/15 07:40:16;;;;;;;3.47;1.60;;;;;;;26.33;30.66;100354.91;5051535;28;20462;-65
2021/07/15 07:42:44;;;;;;;1.20;0.95;;;;;;;26.40;30.56;100366.41;5046414;28;20084;-64
2021/07/15 07:45:12;;;;;;;5.23;2.20;;;;;;;26.18;30.27;100319.56;5044933;28;20128;-64
2021/07/15 07:47:40;;;;;;;3.60;1.83;;;;;;;26.59;30.19;100367.44;5034251;28;20360;-64
2021/07/15 07:50:10;;;;;;;2.33;1.42;;;;;;;26.70;29.84;100376.94;5038708;28;20077;-64
2021/07/15 07:52:37;;;;;;;5.65;0.98;;;;;;;26.49;29.96;100386.16;5032906;28;20120;-64
2021/07/15 07:55:06;;;;;;;2.17;1.40;;;;;;;26.56;29.82;100380.50;5042182;28;20049;-64
2021/07/15 07:57:33;;;;;;;3.88;2.42;;;;;;;26.79;30.31;100382.38;5035476;28;20485;-63
2021/07/15 08:00:11;;;;;;;1.60;1.23;;;;;;;26.97;29.78;100388.25;5048555;28;20091;-64
2021/07/15 08:02:39;;;;;;;6.70;1.25;;;;;;;27.14;29.81;100393.34;5042227;28;20096;-73
2021/07/15 08:05:07;;;;;;;3.13;2.10;;;;;;;27.34;29.11;100379.56;5033857;28;20084;-70
2021/07/15 08:07:34;;;;;;;3.92;2.05;;;;;;;27.64;29.15;100376.47;5032054;28;20124;-72
2021/07/15 08:10:04;;;;;;;4.53;2.75;;;;;;;27.67;28.78;100375.66;5040720;28;20056;-75
2021/07/15 08:12:31;;;;;;;2.85;1.92;;;;;;;27.79;28.59;100383.13;5051007;28;20081;-67
2021/07/15 08:14:58;;;;;;;1.35;0.98;;;;;;;28.02;28.67;100385.69;5051723;28;20077;-73
2021/07/15 08:17:25;;;;;;;4.32;1.52;;;;;;;27.95;27.93;100386.50;5048800;28;20080;-69
2021/07/15 08:19:52;;;;;;;6.45;1.73;;;;;;;27.84;27.98;100374.16;5031850;28;20056;-70
2021/07/15 08:22:19;;;;;;;1.73;1.27;;;;;;;28.06;28.03;100380.78;5043557;28;20136;-68
2021/07/15 08:24:46;;;;;;;6.18;2.15;;;;;;;27.68;27.74;100339.19;5051658;28;20489;-67
2021/07/15 08:27:13;;;;;;;2.40;1.60;;;;;;;28.14;27.74;100370.16;5049514;28;20091;-72
2021/07/15 08:29:40;;;;;;;2.90;1.55;;;;;;;28.28;27.39;100373.91;5047814;28;20205;-69
2021/07/15 08:32:07;;;;;;;5.35;1.83;;;;;;;28.60;27.31;100364.56;5031961;28;20080;-72
2021/07/15 08:34:34;;;;;;;8.02;1.58;;;;;;;28.65;27.04;100377.69;5031726;28;20077;-74
2021/07/15 08:37:02;;;;;;;3.00;1.60;;;;;;;28.20;26.66;100339.81;5032139;28;20444;-73
2021/07/15 08:39:30;;;;;;;2.78;1.02;;;;;;;28.28;26.41;100365.28;5031691;28;20189;-75
2021/07/15 08:42:01;;;;;;;1.63;1.35;;;;;;;28.24;26.36;100381.69;5031255;28;20145;-70
2021/07/15 08:44:28;;;;;;;3.78;1.23;;;;;;;28.29;26.63;100372.66;5031751;28;20546;-66
2021/07/15 08:46:57;;;;;;;3.22;1.27;;;;;;;28.66;26.50;100373.59;5031928;28;20462;-65
2021/07/15 08:49:25;;;;;;;3.00;1.50;;;;;;;28.50;26.61;100369.03;5036962;28;20119;-65
2021/07/15 08:51:53;;;;;;;15.48;1.67;;;;;;;28.55;26.11;100380.16;5053481;28;20056;-62
2021/07/15 08:54:21;;;;;;;3.67;1.50;;;;;;;28.79;26.21;100360.47;5050361;28;20042;-63
2021/07/15 08:56:48;;;;;;;3.17;1.67;;;;;;;29.11;26.28;100360.50;5041913;28;20084;-61
2021/07/15 08:59:17;;;;;;;2.42;1.83;;;;;;;29.65;26.09;100366.19;5055323;28;20460;-63
2021/07/15 09:01:44;;;;;;;3.30;1.85;;;;;;;29.66;25.77;100380.13;5054072;28;20528;-63
2021/07/15 09:04:12;;;;;;;5.93;1.70;;;;;;;30.02;25.52;100365.63;5046998;28;20081;-62
2021/07/15 09:06:42;;;;;;;4.03;2.03;;;;;;;30.37;25.79;100373.28;5033752;28;20144;-62
2021/07/15 09:09:10;;;;;;;2.78;2.05;;;;;;;30.64;25.48;100375.59;5039544;28;20643;-60
2021/07/15 09:11:39;;;;;;;6.90;1.63;;;;;;;31.10;25.53;100368.63;5055025;28;20045;-66
2021/07/15 09:14:18;;;;;;;8.13;2.50;;;;;;;30.70;24.75;100365.22;5054904;28;20088;-63
2021/07/15 09:16:53;;;;;;;8.13;1.55;;;;;;;30.08;24.59;100391.91;5053972;28;20103;-66
2021/07/15 09:19:23;;;;;;;6.50;2.05;;;;;;;29.87;25.29;100372.66;5051257;28;20060;-64
2021/07/15 09:21:52;;;;;;;7.72;2.55;;;;;;;29.94;24.93;100364.81;5034870;28;20144;-63
2021/07/15 09:24:33;;;;;;;2.85;1.70;;;;;;;29.99;25.15;100361.50;5034579;28;20132;-64
2021/07/15 09:27:09;;;;;;;3.17;1.98;;;;;;;29.86;25.09;100360.34;5049701;28;20060;-65
2021/07/15 09:29:36;;;;;;;2.40;1.65;;;;;;;29.87;25.38;100349.63;5053831;28;20466;-63
2021/07/15 09:32:04;;;;;;;2.53;1.70;;;;;;;30.43;24.84;100370.78;5049531;28;20053;-63
2021/07/15 09:34:32;;;;;;;4.80;2.33;;;;;;;30.09;24.67;100325.28;5047169;28;20052;-62
2021/07/15 09:37:10;;;;;;;2.60;1.45;;;;;;;30.53;24.66;100363.28;5052239;28;20580;-64
2021/07/15 09:39:45;;;;;;;3.55;1.40;;;;;;;30.51;24.87;100368.66;5053789;28;20128;-70
2021/07/15 09:42:18;;;;;;;5.20;1.65;;;;;;;30.31;24.79;100374.97;5041367;28;20144;-73
2021/07/15 09:44:51;;;;;;;2.00;1.58;;;;;;;30.06;24.96;100359.84;5051820;28;20076;-71
2021/07/15 09:47:32;;;;;;;2.17;1.30;;;;;;;29.74;24.42;100363.66;5053102;28;20123;-68
2021/07/15 09:50:25;;;;;;;3.15;1.38;;;;;;;29.97;24.57;100377.56;5045493;28;20616;-67
2021/07/15 09:53:12;;;;;;;4.22;1.50;;;;;;;30.01;24.69;100368.91;5047011;28;20044;-66
2021/07/15 09:55:39;;;;;;;1.95;1.73;;;;;;;29.89;24.70;100338.53;5051907;28;20216;-64
2021/07/15 09:58:08;;;;;;;5.80;1.58;;;;;;;30.04;24.59;100383.28;5052894;28;20128;-67
2021/07/15 10:00:45;;;;;;;6.40;1.70;;;;;;;30.04;24.54;100370.94;5052839;28;20144;-67
2021/07/15 10:03:15;;;;;;;5.45;1.85;;;;;;;30.41;24.83;100355.97;5051753;28;20485;-68
2021/07/15 10:05:51;;;;;;;3.47;2.15;;;;;;;30.75;24.21;100370.56;5050430;28;20855;-64
2021/07/15 10:08:26;;;;;;;6.75;2.75;;;;;;;30.90;24.34;100360.56;5051983;28;20051;-68
2021/07/15 10:11:11;;;;;;;7.15;1.70;;;;;;;30.93;24.48;100367.56;5047644;28;20393;-65
2021/07/15 10:13:39;;;;;;;6.78;1.90;;;;;;;31.15;23.85;100365.31;5049808;28;20083;-68
2021/07/15 10:16:07;;;;;;;4.57;2.10;;;;;;;31.63;23.82;100341.34;5050193;28;20059;-68
2021/07/15 10:18:44;;;;;;;5.20;1.40;;;;;;;32.20;23.88;100360.84;5047432;28;20129;-63
2021/07/15 10:21:14;;;;;;;1.00;1.00;;;;;;;31.50;22.40;100326.63;5051161;28;20087;-63
2021/07/15 10:23:41;;;;;;;;;;;;;;;31.16;23.85;100362.00;5052748;28;20136;-63
2021/07/15 10:26:26;;;;;;;6.40;2.63;;;;;;;31.85;23.01;100362.91;5045313;28;19928;-63
2021/07/15 10:28:54;;;;;;;9.23;2.25;;;;;;;32.08;22.80;100352.75;5041196;28;20045;-63
2021/07/15 10:31:24;;;;;;;2.75;1.83;;;;;;;31.97;23.00;100352.09;5053495;28;20556;-63
2021/07/15 10:33:52;;;;;;;3.17;2.22;;;;;;;31.65;22.50;100353.25;5038127;28;20132;-63
2021/07/15 10:36:20;;;;;;;5.40;2.25;;;;;;;31.70;23.23;100361.47;5037291;28;20052;-64
2021/07/15 10:38:51;;;;;;;4.60;1.35;;;;;;;31.74;23.03;100384.50;5041530;28;20449;-67
2021/07/15 10:41:21;;;;;;;2.33;1.67;;;;;;;31.22;22.76;100344.25;5045770;28;20140;-66
2021/07/15 10:43:50;;;;;;;1.45;1.00;;;;;;;31.44;23.32;100336.19;5032734;28;20128;-65
2021/07/15 10:46:18;;;;;;;1.27;0.95;;;;;;;31.23;23.38;100361.09;5035684;28;20080;-64
2021/07/15 10:48:47;;;;;;;13.32;1.52;;;;;;;31.14;23.07;100367.34;5052922;28;20132;-64
2021/07/15 10:51:15;;;;;;;4.25;1.48;;;;;;;31.24;23.70;100348.31;5044897;28;20073;-64
2021/07/15 10:53:43;;;;;;;8.43;2.23;;;;;;;31.48;23.24;100354.28;5031632;28;20088;-64
2021/07/15 10:56:15;;;;;;;2.22;1.13;;;;;;;31.32;22.78;100355.69;5033202;28;20069;-64
2021/07/15 10:58:52;;;;;;;4.95;1.45;;;;;;;31.15;22.98;100365.31;5049161;28;20080;-64
2021/07/15 11:01:40;;;;;;;5.63;2.20;;;;;;;31.10;23.68;100345.56;5052030;28;20131;-64
2021/07/15 11:04:11;;;;;;;0.95;0.85;;;;;;;31.31;23.74;100356.88;5047598;28;20056;-70
2021/07/15 11:06:40;;;;;;;1.05;0.90;;;;;;;31.42;23.92;100342.41;5037555;28;20068;-61
2021/07/15 11:09:10;;;;;;;1.73;1.10;;;;;;;31.38;23.43;100332.94;5046606;28;20124;-62
2021/07/15 11:11:40;;;;;;;2.28;1.85;;;;;;;31.52;23.72;100350.13;5052331;28;20079;-73
2021/07/15 11:14:38;;;;;;;1.48;1.25;;;;;;;31.57;23.33;100346.75;5052629;28;20080;-75
2021/07/15 11:17:20;;;;;;;2.38;1.20;;;;;;;31.58;22.95;100353.34;5033116;28;20045;-62
2021/07/15 11:20:12;;;;;;;1.30;1.20;;;;;;;31.30;22.77;100332.19;5037996;28;20094;-62
2021/07/15 11:22:56;;;;;;;1.00;0.90;;;;;;;31.17;23.32;100346.31;5051087;28;20107;-67
2021/07/15 11:25:33;;;;;;;3.03;1.70;;;;;;;31.13;23.15;100336.06;5052182;28;20083;-63
2021/07/15 11:28:18;;;;;;;1.08;0.98;;;;;;;31.00;23.89;100318.47;5032444;28;20132;-62
2021/07/15 11:30:47;;;;;;;1.73;1.27;;;;;;;31.42;23.27;100339.53;5032372;28;20125;-65
2021/07/15 11:33:21;;;;;;;1.92;1.10;;;;;;;31.70;23.35;100338.38;5037249;28;20381;-65
2021/07/15 11:36:00;;;;;;;2.88;1.40;;;;;;;32.23;23.17;100348.41;5030787;28;20099;-65
2021/07/15 11:38:29;;;;;;;0.68;0.65;;;;;;;32.17;22.62;100350.16;5048102;28;20096;-65
2021/07/15 11:41:03;;;;;;;;;;;;;;;31.68;23.32;100335.09;5040807;28;20140;-64
2021/07/15 11:43:46;;;;;;;1.15;0.80;;;;;;;32.18;23.55;100339.44;5037560;28;20004;-64